This is the latest recevied weather packets stored in our database for station/object N7MLR. If no packets are shown the sender has not sent any weather packets the latest 10 day(s).
| Time | Temp. | Humidity | Pressure | Rain* | Wind** | Luminosity | Snow |
|---|---|---|---|---|---|---|---|
| 1778181914 | 19.44° C | 72% | 1016.3 hPa | 0 mm | - | 195 W/m² | - |
| 1778181611 | 18.89° C | 72% | 1016.1 hPa | 0 mm | - | 399 W/m² | - |
| 1778181306 | 18.89° C | 73% | 1016.1 hPa | 0 mm | - | 378 W/m² | - |
| 1778181003 | 18.33° C | 76% | 1016.1 hPa | 0 mm | - | 346 W/m² | - |
| 1778180701 | 18.89° C | 75% | 1016.5 hPa | 0 mm | - | 311 W/m² | - |
| 1778180399 | 18.89° C | 75% | 1015.9 hPa | 0 mm | - | 450 W/m² | - |
| 1778180096 | 17.78° C | 80% | 1015.9 hPa | 0 mm | - | 479 W/m² | - |
| 1778179793 | 17.22° C | 82% | 1016.4 hPa | 0 mm | - | 445 W/m² | - |
| 1778179491 | 16.67° C | 85% | 1016.4 hPa | 0 mm | - | 289 W/m² | - |
| 1778179189 | 16.11° C | 86% | 1016.5 hPa | 0 mm | - | 196 W/m² | - |
| 1778178885 | 16.11° C | 89% | 1016.5 hPa | 0 mm | - | 174 W/m² | - |
| 1778178582 | 16.11° C | 89% | 1016.9 hPa | 0 mm | - | 144 W/m² | - |
| 1778178278 | 15.56° C | 88% | 1017.2 hPa | 0 mm | - | 120 W/m² | - |
| 1778177974 | 15.56° C | 88% | 1017.3 hPa | 0 mm | - | 103 W/m² | - |
| 1778177671 | 15.56° C | 89% | 1017.3 hPa | 0 mm | - | 118 W/m² | - |
| 1778177367 | 15.56° C | 87% | 1017.8 hPa | 0 mm | - | 101 W/m² | - |
| 1778177064 | 16.11° C | 85% | 1017.4 hPa | 0 mm | - | 145 W/m² | - |
| 1778176760 | 16.67° C | 83% | 1017.3 hPa | 0 mm | - | 147 W/m² | - |
| 1778176457 | 16.67° C | 82% | 1017.6 hPa | 0 mm | - | 150 W/m² | - |
| 1778176155 | 16.67° C | 82% | 1017.6 hPa | 0 mm | - | 147 W/m² | - |
| 1778175852 | 16.11° C | 82% | 1017 hPa | 0 mm | - | 217 W/m² | - |
| 1778175550 | 16.11° C | 82% | 1017.1 hPa | 0 mm | - | 182 W/m² | - |
| 1778175246 | 16.11° C | 83% | 1017.1 hPa | 0 mm | - | 193 W/m² | - |
| 1778174943 | 16.11° C | 83% | 1017.2 hPa | 0 mm | - | 155 W/m² | - |
| 1778174639 | 16.11° C | 83% | 1017.1 hPa | 0 mm | - | 163 W/m² | - |
* Rain latest hour (hover to see other rain measurements)
** Current wind speed in m/s (hover to see current wind gust speed)